PWSweather.com
Personal Weather Stations
Station Observations
KNYSIDNE1
East Masonville, Masonville, NY 13804

East MasonvilleMasonville, NY 13804

Lat: 42.26, Lon: -75.31

Elevation: 1581

Station Type: Davis WMII

http://eastmasonvilleweather.com

Latest ConditionsUpdated 12:20:00 PM EST Friday, Feb 22, 2019
Currently Today's Max Today's Min Today's Average
Temperature 31.2°F-0.4°C 32.6°F0.3°C 28.8°F-1.8°C 30.4°F-0.9°C
Dew Point 23.5°F-4.7°C 25.9°F-3.4°C 22.2°F-5.4°C 23.7°F-4.6°C
Winds 1.2 mph WNW1.9 kmh WNW 5.8 mph -9.3 kmh - - 1.3 mph 2.1 kmh
Wind Gusts 1.2 mph1.9 kmh 10.4 mph16.7 kmh - -
Humidity 73% 81% 69% 76%
Pressure 30.40 in1029.5 mb 30.41 in1029.8 mb 30.18 in1022.0 mb -
Hour Temp Dew Point Humidity Winds Wind Gusts Pressure Precip Precip Rate Daily Precip Total
12:20 PM 31.2°F-0.4°C 23.5°F-4.7°C 73% 1.2 mph WNW1.9 kmh WNW 1.2 mph1.9 kmh 30.40 in1029.5 mb - 0.00 in0.0 mm 0.00 in0.0 mm
12:10 PM 31.3°F-0.4°C 23.3°F-4.8°C 72% 1.2 mph NW1.9 kmh NW 3.5 mph5.6 kmh 30.41 in1029.8 mb - 0.00 in0.0 mm 0.00 in0.0 mm
12:00 PM 31.6°F-0.2°C 23.3°F-4.8°C 71% 2.3 mph W3.7 kmh W 3.5 mph5.6 kmh 30.41 in1029.8 mb - 0.00 in0.0 mm 0.00 in0.0 mm
11:50 AM 31.6°F-0.2°C 23.3°F-4.8°C 71% 1.2 mph NW1.9 kmh NW 2.3 mph3.7 kmh 30.40 in1029.5 mb - 0.00 in0.0 mm 0.00 in0.0 mm
11:40 AM 31.7°F-0.2°C 23.4°F-4.8°C 71% 3.5 mph WNW5.6 kmh WNW 3.5 mph5.6 kmh 30.40 in1029.5 mb - 0.00 in0.0 mm 0.00 in0.0 mm
11:30 AM 31.6°F-0.2°C 23.3°F-4.8°C 71% 2.3 mph WNW3.7 kmh WNW 3.5 mph5.6 kmh 30.40 in1029.5 mb - 0.00 in0.0 mm 0.00 in0.0 mm
11:20 AM 31.4°F-0.3°C 23.1°F-4.9°C 71% 2.3 mph NNW3.7 kmh NNW 2.3 mph3.7 kmh 30.41 in1029.8 mb - 0.00 in0.0 mm 0.00 in0.0 mm
11:10 AM 31.1°F-0.5°C 24.1°F-4.4°C 75% 1.2 mph W1.9 kmh W 2.3 mph3.7 kmh 30.41 in1029.8 mb - 0.00 in0.0 mm 0.00 in0.0 mm
11:00 AM 31.1°F-0.5°C 22.5°F-5.3°C 70% 3.5 mph WNW5.6 kmh WNW 4.6 mph7.4 kmh 30.41 in1029.8 mb - 0.00 in0.0 mm 0.00 in0.0 mm
10:50 AM 31.1°F-0.5°C 22.8°F-5.1°C 71% 4.6 mph NW7.4 kmh NW 6.9 mph11.1 kmh 30.41 in1029.8 mb - 0.00 in0.0 mm 0.00 in0.0 mm
10:40 AM 31.1°F-0.5°C 22.5°F-5.3°C 70% Calm Calm 1.2 mph1.9 kmh 30.41 in1029.8 mb - 0.00 in0.0 mm 0.00 in0.0 mm
10:30 AM 31.0°F-0.6°C 22.4°F-5.3°C 70% Calm Calm 2.3 mph3.7 kmh 30.41 in1029.8 mb - 0.00 in0.0 mm 0.00 in0.0 mm
10:20 AM 31.2°F-0.4°C 22.2°F-5.4°C 69% 2.3 mph WNW3.7 kmh WNW 3.5 mph5.6 kmh 30.39 in1029.1 mb - 0.00 in0.0 mm 0.00 in0.0 mm
10:10 AM 31.1°F-0.5°C 23.1°F-4.9°C 72% 3.5 mph WNW5.6 kmh WNW 6.9 mph11.1 kmh 30.38 in1028.8 mb - 0.00 in0.0 mm 0.00 in0.0 mm
10:00 AM 30.7°F-0.7°C 22.7°F-5.2°C 72% Calm Calm 2.3 mph3.7 kmh 30.38 in1028.8 mb - 0.00 in0.0 mm 0.00 in0.0 mm
09:50 AM 30.2°F-1.0°C 22.9°F-5.1°C 74% Calm Calm 2.3 mph3.7 kmh 30.38 in1028.8 mb - 0.00 in0.0 mm 0.00 in0.0 mm
09:40 AM 29.9°F-1.2°C 22.9°F-5.1°C 75% 1.2 mph NW1.9 kmh NW 4.6 mph7.4 kmh 30.38 in1028.8 mb - 0.00 in0.0 mm 0.00 in0.0 mm
09:30 AM 29.5°F-1.4°C 23.5°F-4.7°C 78% 1.2 mph NW1.9 kmh NW 1.2 mph1.9 kmh 30.38 in1028.8 mb - 0.00 in0.0 mm 0.00 in0.0 mm
09:20 AM 29.3°F-1.5°C 22.9°F-5.1°C 77% 1.2 mph NW1.9 kmh NW 3.5 mph5.6 kmh 30.38 in1028.8 mb - 0.00 in0.0 mm 0.00 in0.0 mm
09:10 AM 29.3°F-1.5°C 22.7°F-5.2°C 76% 1.2 mph W1.9 kmh W 10.4 mph16.7 kmh 30.38 in1028.8 mb - 0.00 in0.0 mm 0.00 in0.0 mm
09:00 AM 29.4°F-1.4°C 22.8°F-5.1°C 76% 3.5 mph WNW5.6 kmh WNW 5.8 mph9.3 kmh 30.37 in1028.4 mb - 0.00 in0.0 mm 0.00 in0.0 mm
08:50 AM 29.5°F-1.4°C 22.9°F-5.1°C 76% 3.5 mph WNW5.6 kmh WNW 5.8 mph9.3 kmh 30.36 in1028.1 mb - 0.00 in0.0 mm 0.00 in0.0 mm
08:40 AM 29.6°F-1.3°C 22.9°F-5.1°C 76% 2.3 mph NW3.7 kmh NW 4.6 mph7.4 kmh 30.36 in1028.1 mb - 0.00 in0.0 mm 0.00 in0.0 mm
08:30 AM 29.6°F-1.3°C 23.6°F-4.7°C 78% 3.5 mph NW5.6 kmh NW 5.8 mph9.3 kmh 30.35 in1027.8 mb - 0.00 in0.0 mm 0.00 in0.0 mm
08:20 AM 29.5°F-1.4°C 23.5°F-4.7°C 78% 2.3 mph WNW3.7 kmh WNW 3.5 mph5.6 kmh 30.35 in1027.8 mb - 0.00 in0.0 mm 0.00 in0.0 mm
08:10 AM 29.5°F-1.4°C 23.8°F-4.6°C 79% Calm Calm 2.3 mph3.7 kmh 30.36 in1028.1 mb - 0.00 in0.0 mm 0.00 in0.0 mm
08:00 AM 29.4°F-1.4°C 24.0°F-4.4°C 80% Calm Calm -- 30.35 in1027.8 mb - 0.00 in0.0 mm 0.00 in0.0 mm
07:50 AM 29.4°F-1.4°C 24.0°F-4.4°C 80% 2.3 mph W3.7 kmh W 3.5 mph5.6 kmh 30.34 in1027.4 mb - 0.00 in0.0 mm 0.00 in0.0 mm
07:40 AM 29.3°F-1.5°C 23.9°F-4.5°C 80% 3.5 mph WNW5.6 kmh WNW 3.5 mph5.6 kmh 30.33 in1027.1 mb - 0.00 in0.0 mm 0.00 in0.0 mm
07:30 AM 29.4°F-1.4°C 24.0°F-4.4°C 80% 5.8 mph WNW9.3 kmh WNW 9.2 mph14.8 kmh 30.34 in1027.4 mb - 0.00 in0.0 mm 0.00 in0.0 mm
07:20 AM 29.3°F-1.5°C 23.9°F-4.5°C 80% Calm Calm 1.2 mph1.9 kmh 30.32 in1026.8 mb - 0.00 in0.0 mm 0.00 in0.0 mm
07:10 AM 29.3°F-1.5°C 23.9°F-4.5°C 80% Calm Calm -- 30.31 in1026.4 mb - 0.00 in0.0 mm 0.00 in0.0 mm
07:00 AM 29.3°F-1.5°C 24.2°F-4.3°C 81% 2.3 mph NW3.7 kmh NW 3.5 mph5.6 kmh 30.31 in1026.4 mb - 0.00 in0.0 mm 0.00 in0.0 mm
06:50 AM 29.3°F-1.5°C 24.2°F-4.3°C 81% 1.2 mph NW1.9 kmh NW 2.3 mph3.7 kmh 30.30 in1026.1 mb - 0.00 in0.0 mm 0.00 in0.0 mm
06:40 AM 29.3°F-1.5°C 24.2°F-4.3°C 81% Calm Calm -- 30.30 in1026.1 mb - 0.00 in0.0 mm 0.00 in0.0 mm
06:30 AM 29.3°F-1.5°C 24.2°F-4.3°C 81% 3.5 mph W5.6 kmh W 3.5 mph5.6 kmh 30.30 in1026.1 mb - 0.00 in0.0 mm 0.00 in0.0 mm
06:20 AM 29.3°F-1.5°C 24.2°F-4.3°C 81% Calm Calm -- 30.30 in1026.1 mb - 0.00 in0.0 mm 0.00 in0.0 mm
06:10 AM 29.3°F-1.5°C 23.9°F-4.5°C 80% Calm Calm 1.2 mph1.9 kmh 30.30 in1026.1 mb - 0.00 in0.0 mm 0.00 in0.0 mm
06:00 AM 29.3°F-1.5°C 23.9°F-4.5°C 80% Calm Calm -- 30.29 in1025.7 mb - 0.00 in0.0 mm 0.00 in0.0 mm
05:50 AM 29.3°F-1.5°C 23.9°F-4.5°C 80% Calm Calm -- 30.29 in1025.7 mb - 0.00 in0.0 mm 0.00 in0.0 mm
05:40 AM 29.1°F-1.6°C 23.7°F-4.6°C 80% Calm Calm 1.2 mph1.9 kmh 30.29 in1025.7 mb - 0.00 in0.0 mm 0.00 in0.0 mm
05:30 AM 29.0°F-1.7°C 23.6°F-4.7°C 80% Calm Calm 2.3 mph3.7 kmh 30.29 in1025.7 mb - 0.00 in0.0 mm 0.00 in0.0 mm
05:20 AM 28.8°F-1.8°C 23.7°F-4.6°C 81% 1.2 mph N1.9 kmh N 2.3 mph3.7 kmh 30.28 in1025.4 mb - 0.00 in0.0 mm 0.00 in0.0 mm
05:10 AM 28.8°F-1.8°C 23.4°F-4.8°C 80% Calm Calm 1.2 mph1.9 kmh 30.28 in1025.4 mb - 0.00 in0.0 mm 0.00 in0.0 mm
05:00 AM 28.9°F-1.7°C 23.5°F-4.7°C 80% Calm Calm -- 30.27 in1025.1 mb - 0.00 in0.0 mm 0.00 in0.0 mm
04:50 AM 29.0°F-1.7°C 23.3°F-4.8°C 79% Calm Calm -- 30.27 in1025.1 mb - 0.00 in0.0 mm 0.00 in0.0 mm
04:40 AM 29.0°F-1.7°C 23.3°F-4.8°C 79% Calm Calm 2.3 mph3.7 kmh 30.27 in1025.1 mb - 0.00 in0.0 mm 0.00 in0.0 mm
04:30 AM 29.2°F-1.6°C 23.2°F-4.9°C 78% Calm Calm 1.2 mph1.9 kmh 30.27 in1025.1 mb - 0.00 in0.0 mm 0.00 in0.0 mm
04:20 AM 29.4°F-1.4°C 23.4°F-4.8°C 78% Calm Calm -- 30.26 in1024.7 mb - 0.00 in0.0 mm 0.00 in0.0 mm
04:10 AM 29.7°F-1.3°C 23.7°F-4.6°C 78% Calm Calm 4.6 mph7.4 kmh 30.25 in1024.4 mb - 0.00 in0.0 mm 0.00 in0.0 mm
04:00 AM 29.8°F-1.2°C 23.2°F-4.9°C 76% Calm Calm -- 30.25 in1024.4 mb - 0.00 in0.0 mm 0.00 in0.0 mm
03:50 AM 29.9°F-1.2°C 23.3°F-4.8°C 76% Calm Calm -- 30.25 in1024.4 mb - 0.00 in0.0 mm 0.00 in0.0 mm
03:40 AM 30.0°F-1.1°C 23.4°F-4.8°C 76% 2.3 mph N3.7 kmh N 2.3 mph3.7 kmh 30.25 in1024.4 mb - 0.00 in0.0 mm 0.00 in0.0 mm
03:30 AM 30.1°F-1.1°C 23.5°F-4.7°C 76% Calm Calm -- 30.25 in1024.4 mb - 0.00 in0.0 mm 0.00 in0.0 mm
03:20 AM 30.2°F-1.0°C 23.5°F-4.7°C 76% 1.2 mph W1.9 kmh W 2.3 mph3.7 kmh 30.25 in1024.4 mb - 0.00 in0.0 mm 0.00 in0.0 mm
03:10 AM 30.3°F-0.9°C 23.0°F-5.0°C 74% 1.2 mph N1.9 kmh N 3.5 mph5.6 kmh 30.24 in1024.0 mb - 0.00 in0.0 mm 0.00 in0.0 mm
03:00 AM 30.4°F-0.9°C 23.1°F-4.9°C 74% Calm Calm 2.3 mph3.7 kmh 30.24 in1024.0 mb - 0.00 in0.0 mm 0.00 in0.0 mm
02:50 AM 30.5°F-0.8°C 23.2°F-4.9°C 74% Calm Calm -- 30.23 in1023.7 mb - 0.00 in0.0 mm 0.00 in0.0 mm
02:40 AM 30.7°F-0.7°C 22.7°F-5.2°C 72% Calm Calm 4.6 mph7.4 kmh 30.23 in1023.7 mb - 0.00 in0.0 mm 0.00 in0.0 mm
02:30 AM 30.9°F-0.6°C 22.9°F-5.1°C 72% Calm Calm 1.2 mph1.9 kmh 30.23 in1023.7 mb - 0.00 in0.0 mm 0.00 in0.0 mm
02:20 AM 31.1°F-0.5°C 23.1°F-4.9°C 72% 1.2 mph N1.9 kmh N 2.3 mph3.7 kmh 30.23 in1023.7 mb - 0.00 in0.0 mm 0.00 in0.0 mm
02:10 AM 31.3°F-0.4°C 23.6°F-4.7°C 73% 1.2 mph N1.9 kmh N 1.2 mph1.9 kmh 30.22 in1023.4 mb - 0.00 in0.0 mm 0.00 in0.0 mm
02:00 AM 31.5°F-0.3°C 24.8°F-4.0°C 76% Calm Calm 1.2 mph1.9 kmh 30.22 in1023.4 mb - 0.00 in0.0 mm 0.00 in0.0 mm
01:50 AM 31.7°F-0.2°C 25.0°F-3.9°C 76% 1.2 mph N1.9 kmh N 3.5 mph5.6 kmh 30.22 in1023.4 mb - 0.00 in0.0 mm 0.00 in0.0 mm
01:40 AM 31.8°F-0.1°C 25.1°F-3.8°C 76% 1.2 mph NW1.9 kmh NW 2.3 mph3.7 kmh 30.22 in1023.4 mb - 0.00 in0.0 mm 0.00 in0.0 mm
01:30 AM 31.9°F-0.1°C 24.9°F-3.9°C 75% 2.3 mph NW3.7 kmh NW 4.6 mph7.4 kmh 30.22 in1023.4 mb - 0.00 in0.0 mm 0.00 in0.0 mm
01:20 AM 32.0°F0.0°C 25.0°F-3.9°C 75% 1.2 mph WSW1.9 kmh WSW 3.5 mph5.6 kmh 30.22 in1023.4 mb - 0.00 in0.0 mm 0.00 in0.0 mm
01:10 AM 32.1°F0.1°C 25.1°F-3.8°C 75% 2.3 mph NW3.7 kmh NW 3.5 mph5.6 kmh 30.22 in1023.4 mb - 0.00 in0.0 mm 0.00 in0.0 mm
01:00 AM 32.1°F0.1°C 25.1°F-3.8°C 75% 2.3 mph W3.7 kmh W 4.6 mph7.4 kmh 30.22 in1023.4 mb - 0.00 in0.0 mm 0.00 in0.0 mm
12:50 AM 32.1°F0.1°C 24.7°F-4.1°C 74% Calm Calm 1.2 mph1.9 kmh 30.21 in1023.0 mb - 0.00 in0.0 mm 0.00 in0.0 mm
12:40 AM 32.2°F0.1°C 25.2°F-3.8°C 75% 5.8 mph WNW9.3 kmh WNW 4.6 mph7.4 kmh 30.20 in1022.7 mb - 0.00 in0.0 mm 0.00 in0.0 mm
12:30 AM 32.3°F0.2°C 25.6°F-3.6°C 76% 2.3 mph WSW3.7 kmh WSW 4.6 mph7.4 kmh 30.21 in1023.0 mb - 0.00 in0.0 mm 0.00 in0.0 mm
12:20 AM 32.4°F0.2°C 25.7°F-3.5°C 76% 1.2 mph NNE1.9 kmh NNE 3.5 mph5.6 kmh 30.19 in1022.4 mb - 0.00 in0.0 mm 0.00 in0.0 mm
12:10 AM 32.5°F0.3°C 25.8°F-3.4°C 76% 2.3 mph N3.7 kmh N 2.3 mph3.7 kmh 30.19 in1022.4 mb - 0.00 in0.0 mm 0.00 in0.0 mm
12:00 AM 32.6°F0.3°C 25.9°F-3.4°C 76% 1.2 mph SW1.9 kmh SW 3.5 mph5.6 kmh 30.18 in1022.0 mb - 0.00 in0.0 mm 0.00 in0.0 mm